Terminal Aerodrome Forecast
Issued by NWS Boston, MA

Home | Current Version | Previous Version | Text Only | Print | Product List | Glossary On
Versions: 1 2 3 4 5 6 7 8 9 10 11 12 13 14 15 16 17 18 19 20 21 22 23 24 25 26 27 28 29 30 31 32 33 34 35 36 37 38 39 40 41 42 43 44 45 46 47 48 49 50
000
FTUS41 KBOX 071720
TAFBOS
TAF
KBOS 071720Z 0718/0824 31005KT 6SM BR OVC008
     FM072200 25005KT P6SM BKN080
     FM080100 26006KT P6SM SCT090
     FM081800 26011KT P6SM OVC060
     FM082300 26011G20KT P6SM SCT140=

USA.gov is the U.S. government's official web portal to all federal, state and local government web resources and services.